Time;durP1;ratioP1;P1;durP2;ratioP2;P2;SDS_P1;SDS_P2;PMS_P1;PMS_P2;Temp;Humidity;BMP_temperature;BMP_pressure;BME280_temperature;BME280_humidity;BME280_pressure;Samples;Min_cycle;Max_cycle;Signal;HPM_P1;HPM_P2
2021/12/18 00:01:49;;;;;;;82.88;52.20;;;;;;;5.41;100.00;102893.56;5050013;28;20806;-58
2021/12/18 00:04:15;;;;;;;93.85;52.70;;;;;;;5.45;100.00;102905.78;5049471;28;20300;-58
2021/12/18 00:06:40;;;;;;;79.88;52.30;;;;;;;5.47;100.00;102894.53;5048489;28;20043;-59
2021/12/18 00:09:08;;;;;;;79.15;52.90;;;;;;;5.36;100.00;102874.41;5049248;28;20866;-58
2021/12/18 00:11:33;;;;;;;81.28;52.90;;;;;;;5.50;100.00;102883.25;5048705;28;20032;-59
2021/12/18 00:13:59;;;;;;;75.32;54.85;;;;;;;5.51;100.00;102884.97;5049141;28;20237;-58
2021/12/18 00:16:24;;;;;;;73.30;51.90;;;;;;;5.52;100.00;102876.31;5049156;28;20092;-58
2021/12/18 00:18:52;;;;;;;80.38;52.70;;;;;;;5.53;100.00;102880.69;5047867;28;20131;-58
2021/12/18 00:21:19;;;;;;;78.68;52.15;;;;;;;5.54;100.00;102880.69;5048972;28;20040;-58
2021/12/18 00:23:45;;;;;;;76.75;53.15;;;;;;;5.55;100.00;102881.56;5049313;28;20027;-58
2021/12/18 00:26:11;;;;;;;76.13;51.60;;;;;;;5.57;100.00;102890.28;5049732;28;20020;-58
2021/12/18 00:28:36;;;;;;;82.05;55.20;;;;;;;5.57;100.00;102893.78;5048951;28;20079;-57
2021/12/18 00:31:01;;;;;;;78.65;53.67;;;;;;;5.59;100.00;102884.22;5048433;28;20028;-58
2021/12/18 00:33:27;;;;;;;78.28;52.55;;;;;;;5.60;100.00;102885.09;5049566;28;20028;-58
2021/12/18 00:35:52;;;;;;;83.07;52.92;;;;;;;5.61;100.00;102884.25;5048486;28;20033;-58
2021/12/18 00:38:18;;;;;;;73.30;50.53;;;;;;;5.62;100.00;102888.59;5048507;28;20035;-58
2021/12/18 00:40:46;;;;;;;82.65;51.83;;;;;;;5.64;100.00;102882.53;5047175;28;20031;-58
2021/12/18 00:43:23;;;;;;;73.78;53.80;;;;;;;5.65;100.00;102878.19;5047774;28;20139;-58
2021/12/18 00:45:49;;;;;;;83.32;52.95;;;;;;;5.66;100.00;102879.94;5047741;28;20040;-58
2021/12/18 00:48:14;;;;;;;77.15;53.63;;;;;;;5.68;100.00;102877.38;5048672;28;20024;-58
2021/12/18 00:50:40;;;;;;;80.00;53.80;;;;;;;5.69;100.00;102877.34;5048645;28;20024;-58
2021/12/18 00:53:05;;;;;;;78.13;51.85;;;;;;;5.47;100.00;102831.09;5048491;28;20028;-58
2021/12/18 00:55:30;;;;;;;87.30;54.78;;;;;;;5.72;100.00;102880.00;5047208;28;21007;-58
2021/12/18 00:57:56;;;;;;;73.97;50.15;;;;;;;5.73;100.00;102870.44;5046012;28;20427;-58
2021/12/18 01:00:24;;;;;;;67.97;50.00;;;;;;;5.75;100.00;102876.53;5048266;28;20052;-58
2021/12/18 01:02:52;;;;;;;75.05;51.88;;;;;;;5.76;100.00;102876.56;5047688;28;20024;-58
2021/12/18 01:05:18;;;;;;;78.60;49.53;;;;;;;5.77;100.00;102877.44;5047308;28;20051;-58
2021/12/18 01:07:43;;;;;;;74.53;54.00;;;;;;;5.77;100.00;102880.94;5047247;28;20096;-58
2021/12/18 01:10:29;;;;;;;94.78;54.05;;;;;;;5.78;100.00;102874.84;5047620;28;20860;-58
2021/12/18 01:12:57;;;;;;;77.13;51.78;;;;;;;5.82;100.00;102876.63;5047143;28;20024;-58
2021/12/18 01:15:29;;;;;;;82.93;52.45;;;;;;;5.82;100.00;102876.63;5046848;28;20061;-58
2021/12/18 01:23:25;;;;;;;;;;;;;;;5.86;100.00;102881.03;5046311;28;20139;-58
2021/12/18 01:25:51;;;;;;;75.50;51.10;;;;;;;5.88;100.00;102884.53;5046301;28;19912;-58
2021/12/18 01:28:16;;;;;;;88.00;57.03;;;;;;;5.88;100.00;102884.53;5046094;28;20193;-58
2021/12/18 01:30:42;;;;;;;76.55;54.45;;;;;;;5.87;100.00;102884.53;5046868;28;20034;-58
2021/12/18 01:33:07;;;;;;;97.57;54.42;;;;;;;5.89;100.00;102886.28;5046664;28;20895;-58
2021/12/18 01:35:33;;;;;;;99.90;55.70;;;;;;;5.91;100.00;102887.19;5046039;28;20032;-58
2021/12/18 01:37:59;;;;;;;89.22;56.03;;;;;;;5.91;100.00;102886.31;5045538;28;20820;-58
2021/12/18 01:40:25;;;;;;;91.97;55.05;;;;;;;5.41;100.00;102791.91;5046885;28;20055;-58
2021/12/18 01:46:02;;;;;;;92.15;54.10;;;;;;;5.95;100.00;102877.63;5045605;28;20037;-58
2021/12/18 01:51:25;;;;;;;88.47;51.55;;;;;;;5.97;100.00;102881.13;5045630;28;20054;-58
2021/12/18 01:53:53;;;;;;;90.32;57.45;;;;;;;5.98;100.00;102878.53;5044973;28;20064;-59
2021/12/18 01:56:19;;;;;;;87.65;54.53;;;;;;;6.01;100.00;102888.13;5044838;28;20032;-58
2021/12/18 01:58:45;;;;;;;85.13;53.97;;;;;;;6.02;100.00;102885.53;5046791;28;20085;-58
2021/12/18 02:01:12;;;;;;;83.70;52.72;;;;;;;6.02;100.00;102893.34;5045106;28;20843;-58
2021/12/18 02:03:38;;;;;;;75.22;50.83;;;;;;;6.06;100.00;102876.00;5028059;28;20781;-58
2021/12/18 02:06:03;;;;;;;81.93;51.30;;;;;;;6.06;100.00;102876.88;5046811;28;20057;-58
2021/12/18 02:08:30;;;;;;;80.70;51.85;;;;;;;6.07;100.00;102880.34;5046763;28;20059;-58
2021/12/18 02:11:02;;;;;;;75.60;47.63;;;;;;;6.07;100.00;102877.75;5045530;28;20036;-58
2021/12/18 02:21:23;;;;;;;93.03;50.50;;;;;;;6.14;100.00;102880.44;4993674;28;1512329;-58
2021/12/18 02:23:49;;;;;;;74.00;48.88;;;;;;;6.14;100.00;102885.66;5047011;28;20032;-58
2021/12/18 02:26:15;;;;;;;82.10;52.50;;;;;;;6.15;100.00;102870.88;5046154;28;20024;-58
2021/12/18 02:28:45;;;;;;;77.30;51.92;;;;;;;6.15;100.00;102871.72;5047493;28;20924;-58
2021/12/18 02:31:10;;;;;;;78.20;52.50;;;;;;;6.18;100.00;102870.00;5047407;28;20043;-58
2021/12/18 02:33:36;;;;;;;79.53;50.80;;;;;;;5.98;100.00;102836.78;5048005;28;20032;-58
2021/12/18 02:36:05;;;;;;;76.30;51.17;;;;;;;6.16;100.00;102863.03;5046716;28;20815;-58
2021/12/18 02:38:56;;;;;;;81.32;50.67;;;;;;;6.18;100.00;102864.78;5046381;28;20038;-58
2021/12/18 02:41:39;;;;;;;85.10;51.53;;;;;;;6.18;100.00;102870.00;5048439;28;20091;-58
2021/12/18 02:44:10;;;;;;;78.28;51.80;;;;;;;6.18;100.00;102869.13;5047822;28;20365;-58
2021/12/18 02:46:36;;;;;;;79.93;50.70;;;;;;;6.18;100.00;102870.88;5047733;28;20039;-58
2021/12/18 02:49:14;;;;;;;81.47;50.92;;;;;;;5.94;100.00;102824.59;5047504;28;20123;-58
2021/12/18 02:51:39;;;;;;;84.05;52.63;;;;;;;6.20;100.00;102866.53;5047342;28;20024;-57
2021/12/18 02:54:05;;;;;;;75.38;49.35;;;;;;;6.20;100.00;102865.66;5046939;28;20060;-57
2021/12/18 02:56:31;;;;;;;88.97;49.05;;;;;;;6.21;100.00;102859.59;5046589;28;20931;-58
2021/12/18 02:59:03;;;;;;;77.60;51.10;;;;;;;6.21;100.00;102859.59;5046758;28;20534;-58
2021/12/18 03:01:29;;;;;;;87.38;51.75;;;;;;;6.18;100.00;102856.06;5045797;28;20051;-58
2021/12/18 03:03:57;;;;;;;89.82;53.90;;;;;;;6.08;100.00;102830.75;5047067;28;20054;-58
2021/12/18 03:06:34;;;;;;;76.45;51.97;;;;;;;6.12;100.00;102840.38;5045086;28;20026;-58
2021/12/18 03:25:21;;;;;;;81.45;52.03;;;;;;;6.23;100.00;102842.19;5049454;28;20059;-58
2021/12/18 03:27:46;;;;;;;86.18;52.20;;;;;;;6.24;100.00;102843.94;5049877;28;20473;-57
2021/12/18 03:30:12;;;;;;;82.55;53.83;;;;;;;6.23;100.00;102839.56;5049355;28;20513;-58
2021/12/18 03:32:38;;;;;;;78.90;52.47;;;;;;;6.23;100.00;102847.41;5031805;28;20877;-58
2021/12/18 03:35:05;;;;;;;91.45;52.00;;;;;;;6.23;100.00;102847.41;5049816;28;20089;-58
2021/12/18 03:37:33;;;;;;;88.10;50.53;;;;;;;6.21;100.00;102849.13;5048961;28;20130;-58
2021/12/18 03:39:59;;;;;;;95.90;49.63;;;;;;;6.23;100.00;102844.78;5049290;28;20074;-58
2021/12/18 03:42:25;;;;;;;77.97;49.97;;;;;;;6.25;100.00;102850.91;5049522;28;20028;-58
2021/12/18 03:44:50;;;;;;;86.32;50.90;;;;;;;6.24;100.00;102849.16;5049713;28;20020;-58
2021/12/18 03:47:16;;;;;;;90.22;50.97;;;;;;;6.22;100.00;102840.47;5049371;28;20361;-58
2021/12/18 03:49:42;;;;;;;70.63;47.22;;;;;;;6.23;100.00;102857.84;5049694;28;20035;-58
2021/12/18 03:52:07;;;;;;;83.63;49.00;;;;;;;6.22;100.00;102862.19;5049364;28;20139;-58
2021/12/18 03:54:33;;;;;;;75.75;47.05;;;;;;;6.23;100.00;102857.84;5050351;28;20777;-58
2021/12/18 03:56:58;;;;;;;80.90;50.97;;;;;;;6.22;100.00;102848.28;5049734;28;20027;-58
2021/12/18 03:59:24;;;;;;;72.95;47.38;;;;;;;6.23;100.00;102852.63;5049827;28;20136;-58
2021/12/18 04:01:49;;;;;;;95.97;52.63;;;;;;;6.25;100.00;102863.97;5049020;28;20846;-58
2021/12/18 04:04:15;;;;;;;78.65;50.05;;;;;;;6.22;100.00;102845.69;5049235;28;20067;-58
2021/12/18 04:06:42;;;;;;;86.68;52.58;;;;;;;6.21;100.00;102851.75;5048729;28;20842;-59
2021/12/18 04:09:08;;;;;;;83.90;49.35;;;;;;;6.18;100.00;102853.47;5048985;28;20109;-58
2021/12/18 04:11:33;;;;;;;79.68;49.63;;;;;;;6.17;100.00;102848.25;5030578;28;20024;-58
2021/12/18 04:13:59;;;;;;;79.50;46.83;;;;;;;6.18;100.00;102851.72;5049413;28;20905;-58
2021/12/18 04:16:24;;;;;;;81.00;46.88;;;;;;;6.18;100.00;102840.41;5047822;28;20024;-58
2021/12/18 04:18:50;;;;;;;83.60;48.90;;;;;;;6.19;100.00;102841.28;5048099;28;20028;-58
2021/12/18 04:21:15;;;;;;;81.93;48.35;;;;;;;6.12;100.00;102829.94;5049272;28;20179;-58
2021/12/18 04:23:41;;;;;;;72.47;49.25;;;;;;;6.10;100.00;102825.56;5050096;28;20028;-58
2021/12/18 04:26:06;;;;;;;87.60;50.42;;;;;;;6.16;100.00;102847.38;5047206;28;20028;-58
2021/12/18 04:28:31;;;;;;;76.82;50.90;;;;;;;6.18;100.00;102849.13;5031962;28;20138;-58
2021/12/18 04:30:57;;;;;;;76.47;45.88;;;;;;;6.15;100.00;102850.81;5048290;28;20031;-58
2021/12/18 04:33:22;;;;;;;72.60;46.45;;;;;;;6.18;100.00;102848.22;5047882;28;20947;-58
2021/12/18 04:35:48;;;;;;;80.10;46.67;;;;;;;6.17;100.00;102848.25;5048187;28;20032;-58
2021/12/18 04:38:13;;;;;;;83.22;48.92;;;;;;;6.18;100.00;102854.34;5049024;28;20884;-58
2021/12/18 04:40:40;;;;;;;79.75;45.83;;;;;;;6.18;100.00;102847.41;5049122;28;20945;-58
2021/12/18 04:43:05;;;;;;;92.70;46.10;;;;;;;6.18;100.00;102856.06;5049850;28;20024;-58
2021/12/18 04:45:31;;;;;;;79.22;45.13;;;;;;;6.19;100.00;102851.72;5048647;28;20082;-59
2021/12/18 04:47:56;;;;;;;59.83;41.50;;;;;;;6.21;100.00;102849.13;5047120;28;20806;-58
2021/12/18 04:50:23;;;;;;;70.07;42.45;;;;;;;6.13;100.00;102847.34;5048535;28;20028;-58
2021/12/18 04:52:48;;;;;;;71.60;43.28;;;;;;;6.21;100.00;102856.97;5046774;28;20276;-58
2021/12/18 04:55:14;;;;;;;62.78;43.92;;;;;;;6.22;100.00;102856.13;5049026;28;20020;-58
2021/12/18 04:57:39;;;;;;;67.20;44.42;;;;;;;6.22;100.00;102848.28;5048571;28;20917;-58
2021/12/18 05:00:07;;;;;;;86.85;48.47;;;;;;;6.25;100.00;102848.31;5048609;28;20976;-58
2021/12/18 05:02:37;;;;;;;73.30;44.78;;;;;;;6.22;100.00;102846.53;5048323;28;20029;-58
2021/12/18 05:05:04;;;;;;;68.32;42.28;;;;;;;6.22;100.00;102838.69;5046656;28;20039;-58
2021/12/18 05:07:30;;;;;;;87.28;47.90;;;;;;;6.08;100.00;102822.94;5046365;28;20028;-58
2021/12/18 05:09:55;;;;;;;87.38;46.17;;;;;;;6.22;100.00;102841.31;5030248;28;20031;-58
2021/12/18 05:12:21;;;;;;;86.15;51.08;;;;;;;6.23;100.00;102844.78;5049429;28;20035;-58
2021/12/18 05:14:46;;;;;;;77.85;48.60;;;;;;;6.22;100.00;102838.69;5046375;28;20130;-58
2021/12/18 05:17:12;;;;;;;79.00;51.25;;;;;;;6.20;100.00;102843.03;5047719;28;20032;-58
2021/12/18 05:19:37;;;;;;;79.82;47.85;;;;;;;6.21;100.00;102839.56;5048615;28;20915;-58
2021/12/18 05:22:04;;;;;;;76.25;48.05;;;;;;;6.22;100.00;102841.31;5046685;28;20898;-58
2021/12/18 05:24:29;;;;;;;88.38;50.25;;;;;;;6.21;100.00;102843.91;5047896;28;20130;-58
2021/12/18 05:26:55;;;;;;;91.55;50.92;;;;;;;6.21;100.00;102854.38;5047895;28;20039;-58
2021/12/18 05:29:20;;;;;;;82.57;46.50;;;;;;;6.21;100.00;102855.25;5048103;28;20835;-58
2021/12/18 05:31:45;;;;;;;74.80;47.70;;;;;;;6.21;100.00;102865.69;5047696;28;20055;-58
2021/12/18 05:34:20;;;;;;;86.35;49.35;;;;;;;6.09;100.00;102845.56;5047432;28;20028;-58
2021/12/18 05:39:25;;;;;;;84.07;52.60;;;;;;;6.22;100.00;102861.34;5046613;28;20043;-58
2021/12/18 05:41:51;;;;;;;92.22;50.22;;;;;;;6.19;100.00;102862.16;5048079;28;20032;-58
2021/12/18 05:44:23;;;;;;;85.85;47.38;;;;;;;6.21;100.00;102867.41;5047782;28;20044;-58
2021/12/18 05:46:49;;;;;;;99.82;53.20;;;;;;;6.22;100.00;102866.56;5047291;28;20136;-58
2021/12/18 05:49:15;;;;;;;89.68;51.38;;;;;;;5.76;100.00;102789.59;5029932;28;20088;-58
2021/12/18 05:51:42;;;;;;;85.25;50.90;;;;;;;6.23;100.00;102874.38;5047558;28;20945;-58
2021/12/18 05:54:08;;;;;;;87.55;49.38;;;;;;;6.23;100.00;102868.28;5030238;28;20876;-58
2021/12/18 05:56:34;;;;;;;95.82;51.78;;;;;;;6.12;100.00;102845.59;5048599;28;20031;-58
2021/12/18 05:58:59;;;;;;;98.63;53.63;;;;;;;6.24;100.00;102862.22;5048103;28;20036;-58
2021/12/18 06:01:25;;;;;;;88.47;52.28;;;;;;;6.22;100.00;102863.94;5047350;28;20028;-58
2021/12/18 06:03:51;;;;;;;88.38;51.38;;;;;;;6.23;100.00;102865.69;5047542;28;20034;-58
2021/12/18 06:06:16;;;;;;;96.80;53.83;;;;;;;6.24;100.00;102870.03;5047348;28;20024;-58
2021/12/18 06:08:42;;;;;;;84.68;50.20;;;;;;;6.21;100.00;102868.28;5046567;28;20032;-58
2021/12/18 06:11:14;;;;;;;91.25;51.22;;;;;;;6.23;100.00;102869.16;5045445;28;20882;-58
2021/12/18 06:13:41;;;;;;;82.80;47.85;;;;;;;6.23;100.00;102866.56;5046516;28;20755;-58
2021/12/18 06:16:07;;;;;;;93.72;47.50;;;;;;;6.25;100.00;102877.03;5046150;28;20082;-58
2021/12/18 06:18:40;;;;;;;88.70;48.83;;;;;;;6.23;100.00;102863.06;5047101;28;20141;-58
2021/12/18 06:21:06;;;;;;;80.20;46.45;;;;;;;6.24;100.00;102870.94;5046549;28;20055;-58
2021/12/18 06:23:32;;;;;;;95.20;50.63;;;;;;;6.25;100.00;102871.81;5047358;28;20897;-58
2021/12/18 06:25:57;;;;;;;81.80;47.88;;;;;;;6.22;100.00;102866.56;5046753;28;20024;-59
2021/12/18 06:28:23;;;;;;;91.20;48.00;;;;;;;6.22;100.00;102871.78;5045366;28;20085;-58
2021/12/18 06:30:49;;;;;;;104.28;53.60;;;;;;;6.21;100.00;102873.50;5047211;28;20116;-58
2021/12/18 06:33:15;;;;;;;95.05;52.40;;;;;;;6.09;100.00;102855.13;5045484;28;20028;-58
2021/12/18 06:35:41;;;;;;;97.35;47.67;;;;;;;6.22;100.00;102867.41;5046086;28;20030;-58
2021/12/18 06:38:06;;;;;;;96.45;49.22;;;;;;;6.23;100.00;102868.28;5047040;28;20123;-58
2021/12/18 06:40:32;;;;;;;86.80;49.08;;;;;;;6.22;100.00;102872.63;5049611;28;20035;-58
2021/12/18 06:42:57;;;;;;;82.82;47.38;;;;;;;6.21;100.00;102864.81;5056579;28;20063;-58
2021/12/18 06:45:23;;;;;;;83.32;47.20;;;;;;;6.22;100.00;102872.63;5061839;28;20047;-58
2021/12/18 06:47:48;;;;;;;80.90;46.70;;;;;;;6.21;100.00;102867.41;5065826;28;20023;-58
2021/12/18 06:50:14;;;;;;;80.57;44.45;;;;;;;6.21;100.00;102870.91;5063926;28;20051;-58
2021/12/18 06:52:39;;;;;;;81.03;43.50;;;;;;;6.21;100.00;102872.63;5043240;28;20861;-58
2021/12/18 06:55:05;;;;;;;88.25;43.58;;;;;;;6.20;100.00;102868.28;5063636;28;20140;-58
2021/12/18 06:57:31;;;;;;;85.38;44.45;;;;;;;6.09;100.00;102856.00;5052531;28;20028;-58
2021/12/18 06:59:56;;;;;;;92.10;47.42;;;;;;;6.19;100.00;102864.78;5050640;28;20048;-58
2021/12/18 07:02:22;;;;;;;80.20;43.33;;;;;;;6.18;100.00;102866.50;5050030;28;20082;-58
2021/12/18 07:04:47;;;;;;;77.18;41.53;;;;;;;5.82;100.00;102803.56;5069389;28;20031;-58
2021/12/18 07:07:13;;;;;;;77.40;46.80;;;;;;;6.18;100.00;102864.78;5070828;28;20988;-58
2021/12/18 07:09:39;;;;;;;80.78;44.25;;;;;;;6.20;100.00;102866.53;5053085;28;20031;-58
2021/12/18 07:12:05;;;;;;;86.82;47.17;;;;;;;6.20;100.00;102863.94;5072072;28;20031;-58
2021/12/18 07:14:30;;;;;;;77.80;47.67;;;;;;;5.86;100.00;102801.91;5070898;28;20913;-58
2021/12/18 07:16:56;;;;;;;97.75;50.47;;;;;;;6.22;100.00;102858.72;5068769;28;20599;-58
2021/12/18 07:19:21;;;;;;;93.50;50.42;;;;;;;6.23;100.00;102863.06;5069942;28;20858;-58
2021/12/18 07:21:46;;;;;;;105.32;54.20;;;;;;;6.18;100.00;102853.47;5068226;28;20043;-57
2021/12/18 07:24:12;;;;;;;93.18;50.25;;;;;;;6.24;100.00;102859.59;5069774;28;20077;-58
2021/12/18 07:26:37;;;;;;;105.85;50.40;;;;;;;5.99;100.00;102807.22;5056876;28;20064;-58
2021/12/18 07:29:03;;;;;;;88.88;51.28;;;;;;;6.26;100.00;102855.25;5046814;28;20032;-58
2021/12/18 07:31:28;;;;;;;102.47;55.03;;;;;;;6.24;100.00;102865.69;5049416;28;20320;-58
2021/12/18 07:33:54;;;;;;;102.22;55.17;;;;;;;6.22;100.00;102866.56;5047938;28;20024;-58
2021/12/18 07:36:19;;;;;;;80.07;48.35;;;;;;;6.24;100.00;102860.47;5030617;28;20031;-58
2021/12/18 07:38:45;;;;;;;96.03;51.05;;;;;;;6.27;100.00;102862.22;5049059;28;20031;-58
2021/12/18 07:41:11;;;;;;;96.03;50.60;;;;;;;6.29;100.00;102868.31;5049428;28;20055;-58
2021/12/18 07:43:36;;;;;;;100.68;54.03;;;;;;;6.31;100.00;102861.41;5048894;28;20024;-58
2021/12/18 07:46:02;;;;;;;91.78;51.33;;;;;;;6.31;100.00;102864.00;5047029;28;20139;-58
2021/12/18 07:48:28;;;;;;;90.57;48.53;;;;;;;5.97;100.00;102803.75;5049478;28;20035;-58
2021/12/18 07:50:53;;;;;;;95.53;51.47;;;;;;;6.33;100.00;102855.31;5049960;28;20032;-58
2021/12/18 07:53:18;;;;;;;110.03;51.53;;;;;;;6.33;100.00;102864.88;5049360;28;20884;-58
2021/12/18 07:55:44;;;;;;;118.53;54.65;;;;;;;6.04;100.00;102807.25;5048940;28;20034;-58
2021/12/18 07:58:09;;;;;;;103.65;51.70;;;;;;;6.36;100.00;102864.91;5047633;28;20086;-58
2021/12/18 08:00:35;;;;;;;123.68;60.95;;;;;;;6.35;100.00;102861.44;5048843;28;20056;-58
2021/12/18 08:03:00;;;;;;;98.90;54.72;;;;;;;6.35;100.00;102855.34;5049505;28;20258;-58
2021/12/18 08:05:25;;;;;;;101.22;53.25;;;;;;;6.35;100.00;102860.56;5047100;28;20020;-58
2021/12/18 08:07:51;;;;;;;95.32;54.08;;;;;;;6.35;100.00;102863.16;5046418;28;20024;-58
2021/12/18 08:10:16;;;;;;;130.63;60.10;;;;;;;6.32;100.00;102858.78;5047175;28;20024;-58
2021/12/18 08:12:42;;;;;;;112.50;60.72;;;;;;;6.30;100.00;102846.59;5047887;28;20084;-58
2021/12/18 08:15:09;;;;;;;112.85;60.20;;;;;;;6.32;100.00;102857.94;5047460;28;20109;-58
2021/12/18 08:17:35;;;;;;;134.70;63.90;;;;;;;6.30;100.00;102868.34;5046090;28;20048;-58
2021/12/18 08:20:01;;;;;;;114.68;56.08;;;;;;;6.29;100.00;102860.50;5047797;28;20020;-58
2021/12/18 08:22:26;;;;;;;99.57;52.80;;;;;;;6.28;100.00;102866.59;5047696;28;20189;-58
2021/12/18 08:24:52;;;;;;;99.43;53.92;;;;;;;6.27;100.00;102862.22;5067922;28;20828;-57
2021/12/18 08:27:17;;;;;;;101.50;50.83;;;;;;;6.26;100.00;102863.09;5055032;28;20052;-58
2021/12/18 08:29:42;;;;;;;109.60;55.85;;;;;;;6.31;100.00;102861.41;5046935;28;20110;-58
2021/12/18 08:32:08;;;;;;;104.97;54.33;;;;;;;5.90;100.00;102794.13;5047683;28;20136;-58
2021/12/18 08:34:33;;;;;;;124.80;56.45;;;;;;;6.31;100.00;102866.63;5047604;28;20877;-57
2021/12/18 08:36:59;;;;;;;137.20;59.20;;;;;;;6.32;100.00;102870.97;5047488;28;20074;-57
2021/12/18 08:39:24;;;;;;;106.13;53.20;;;;;;;6.32;100.00;102863.16;5047951;28;20032;-57
2021/12/18 08:41:50;;;;;;;113.70;60.03;;;;;;;6.32;100.00;102865.75;5047516;28;20024;-58
2021/12/18 08:44:15;;;;;;;115.60;57.60;;;;;;;6.27;100.00;102851.78;5048785;28;20089;-58
2021/12/18 08:46:41;;;;;;;100.90;49.05;;;;;;;6.35;100.00;102864.06;5047157;28;20077;-58
2021/12/18 08:49:06;;;;;;;111.78;55.47;;;;;;;6.38;100.00;102863.19;5048994;28;20023;-58
2021/12/18 08:51:32;;;;;;;100.45;53.97;;;;;;;6.39;100.00;102872.75;5049428;28;20047;-57
2021/12/18 08:53:58;;;;;;;127.57;58.40;;;;;;;6.38;100.00;102863.19;5048902;28;20113;-58
2021/12/18 08:56:24;;;;;;;103.43;54.95;;;;;;;6.38;100.00;102864.06;5030820;28;20034;-58
2021/12/18 08:58:51;;;;;;;111.35;54.97;;;;;;;6.40;100.00;102869.28;5047686;28;20024;-57
2021/12/18 09:01:17;;;;;;;122.72;57.25;;;;;;;6.41;100.00;102868.44;5047433;28;20947;-58
2021/12/18 09:03:42;;;;;;;98.03;49.15;;;;;;;6.01;100.00;102800.28;5047533;28;20055;-58
2021/12/18 09:06:08;;;;;;;103.40;54.13;;;;;;;6.41;100.00;102863.19;5047422;28;20023;-58
2021/12/18 09:08:33;;;;;;;92.72;51.60;;;;;;;6.43;100.00;102866.69;5049668;28;20024;-58
2021/12/18 09:10:59;;;;;;;98.57;53.80;;;;;;;6.28;100.00;102843.97;5047168;28;20883;-58
2021/12/18 09:13:24;;;;;;;92.25;48.63;;;;;;;6.42;100.00;102867.56;5047721;28;20093;-58
2021/12/18 09:15:49;;;;;;;94.45;48.42;;;;;;;6.43;100.00;102866.69;5047644;28;20034;-58
2021/12/18 09:18:15;;;;;;;101.38;52.33;;;;;;;6.47;100.00;102873.69;5048505;28;20028;-58
2021/12/18 09:20:44;;;;;;;105.85;53.17;;;;;;;6.48;100.00;102870.22;5048586;28;20941;-58
2021/12/18 09:23:12;;;;;;;106.70;55.97;;;;;;;6.46;100.00;102877.16;5047987;28;20028;-58
2021/12/18 09:25:38;;;;;;;112.68;57.08;;;;;;;6.48;100.00;102880.66;5048228;28;20027;-58
2021/12/18 09:28:04;;;;;;;105.00;52.85;;;;;;;6.51;100.00;102876.34;5047873;28;20024;-58
2021/12/18 09:30:29;;;;;;;91.80;46.35;;;;;;;6.53;100.00;102873.72;5048409;28;20093;-58
2021/12/18 09:32:55;;;;;;;107.32;47.08;;;;;;;6.56;100.00;102868.50;5055984;28;20842;-59
2021/12/18 09:35:21;;;;;;;83.93;45.40;;;;;;;6.26;100.00;102816.09;5068966;28;20893;-58
2021/12/18 09:37:47;;;;;;;92.60;49.50;;;;;;;6.56;100.00;102873.72;5067780;28;20126;-58
2021/12/18 09:40:13;;;;;;;86.07;45.20;;;;;;;6.62;100.00;102884.25;5067454;28;20042;-58
2021/12/18 09:42:39;;;;;;;71.80;42.70;;;;;;;6.61;100.00;102882.50;5065743;28;20027;-58
2021/12/18 09:45:06;;;;;;;95.95;45.72;;;;;;;6.62;100.00;102889.47;5065521;28;20023;-58
2021/12/18 09:47:31;;;;;;;76.50;43.55;;;;;;;6.63;100.00;102876.41;5064022;28;20069;-58
2021/12/18 09:49:58;;;;;;;85.80;47.22;;;;;;;6.66;100.00;102891.22;5049926;28;20044;-59
2021/12/18 09:52:25;;;;;;;82.80;46.95;;;;;;;6.66;100.00;102880.75;5046614;28;20024;-58
2021/12/18 09:54:55;;;;;;;80.43;44.92;;;;;;;6.68;100.00;102884.28;5045301;28;20032;-58
2021/12/18 09:57:20;;;;;;;88.07;47.08;;;;;;;6.66;100.00;102881.63;5029227;28;20062;-58
2021/12/18 09:59:45;;;;;;;97.82;47.15;;;;;;;6.53;100.00;102850.22;5046230;28;20024;-58
2021/12/18 10:02:11;;;;;;;80.82;41.45;;;;;;;6.66;100.00;102872.91;5047365;28;20024;-58
2021/12/18 10:04:38;;;;;;;78.63;44.67;;;;;;;6.63;100.00;102865.06;5059071;28;20032;-59
2021/12/18 10:07:24;;;;;;;85.07;43.58;;;;;;;6.71;100.00;102873.84;5066816;28;20122;-58
2021/12/18 10:09:57;;;;;;;64.18;36.58;;;;;;;6.75;100.00;102867.78;5066992;28;20090;-58
2021/12/18 10:12:31;;;;;;;80.20;40.60;;;;;;;6.76;100.00;102860.81;5065802;28;20306;-58
2021/12/18 10:15:02;;;;;;;67.22;40.50;;;;;;;6.76;100.00;102864.28;5065539;28;20035;-58
2021/12/18 10:17:34;;;;;;;67.85;34.92;;;;;;;6.77;100.00;102862.53;5054434;28;20024;-58
2021/12/18 10:20:14;;;;;;;78.00;36.90;;;;;;;6.76;100.00;102861.66;5026843;28;20858;-58
2021/12/18 10:22:51;;;;;;;57.88;34.13;;;;;;;6.78;100.00;102857.34;5047238;28;20028;-58
2021/12/18 10:25:22;;;;;;;58.03;32.60;;;;;;;6.81;100.00;102856.47;5046473;28;20032;-58
2021/12/18 10:28:04;;;;;;;60.58;32.38;;;;;;;6.82;100.00;102846.03;5047053;28;20036;-58
2021/12/18 10:30:29;;;;;;;60.25;32.25;;;;;;;6.85;100.00;102851.28;5045737;28;20244;-58
2021/12/18 10:32:56;;;;;;;66.43;35.15;;;;;;;6.87;100.00;102844.31;5049440;28;20028;-58
2021/12/18 10:35:22;;;;;;;64.10;36.88;;;;;;;6.90;100.00;102833.84;5051411;28;20020;-56
2021/12/18 10:37:48;;;;;;;72.00;38.15;;;;;;;6.91;100.00;102843.44;5051517;28;20097;-58
2021/12/18 10:40:14;;;;;;;63.13;36.72;;;;;;;6.91;100.00;102838.22;5051581;28;20024;-58
2021/12/18 10:42:42;;;;;;;51.45;26.95;;;;;;;6.93;100.00;102839.09;5043714;28;20108;-58
2021/12/18 10:45:19;;;;;;;60.95;32.70;;;;;;;6.94;100.00;102840.84;5049369;28;20904;-58
2021/12/18 10:47:44;;;;;;;54.97;31.63;;;;;;;6.97;100.00;102835.63;5048686;28;20076;-58
2021/12/18 10:50:21;;;;;;;69.47;32.63;;;;;;;6.97;100.00;102835.63;5050962;28;20055;-58
2021/12/18 10:52:53;;;;;;;49.95;30.67;;;;;;;6.90;100.00;102818.19;5051471;28;20906;-59
2021/12/18 10:55:18;;;;;;;53.53;33.00;;;;;;;7.02;100.00;102828.69;5050540;28;20094;-58
2021/12/18 10:57:51;;;;;;;53.60;32.05;;;;;;;7.06;100.00;102834.81;5048230;28;20141;-58
2021/12/18 11:00:17;;;;;;;55.10;30.05;;;;;;;6.99;100.00;102810.38;5049514;28;20028;-58
2021/12/18 11:02:43;;;;;;;61.97;31.30;;;;;;;7.09;100.00;102820.00;5049254;28;20031;-59
2021/12/18 11:05:16;;;;;;;54.60;27.52;;;;;;;7.12;100.00;102820.00;5049992;28;20027;-58
2021/12/18 11:07:44;;;;;;;48.47;27.38;;;;;;;7.09;100.00;102819.13;5046607;28;20043;-58
2021/12/18 11:10:41;;;;;;;48.53;32.30;;;;;;;7.02;100.00;102818.25;5042731;28;20040;-58
2021/12/18 11:15:51;;;;;;;52.35;29.33;;;;;;;7.04;100.00;102811.25;5049520;28;20098;-58
2021/12/18 11:18:18;;;;;;;47.47;26.65;;;;;;;7.04;100.00;102810.38;5049958;28;20878;-58
2021/12/18 11:20:43;;;;;;;38.67;23.27;;;;;;;7.00;100.00;102812.13;5049326;28;20036;-58
2021/12/18 11:23:09;;;;;;;49.67;25.60;;;;;;;7.00;100.00;102819.94;5049724;28;20058;-58
2021/12/18 11:25:34;;;;;;;43.40;25.85;;;;;;;6.97;100.00;102806.00;5049927;28;20028;-58
2021/12/18 11:28:00;;;;;;;49.58;24.02;;;;;;;6.97;100.00;102804.25;5047387;28;20031;-58
2021/12/18 11:30:25;;;;;;;51.80;28.40;;;;;;;7.00;100.00;102803.41;5048368;28;20093;-58
2021/12/18 11:32:54;;;;;;;47.40;26.35;;;;;;;7.02;100.00;102807.78;5048951;28;20024;-58
2021/12/18 11:35:21;;;;;;;44.10;28.30;;;;;;;6.98;100.00;102798.19;5040073;28;20768;-58
2021/12/18 11:38:16;;;;;;;52.65;28.38;;;;;;;7.00;100.00;102801.66;5047463;28;20028;-58
2021/12/18 11:40:41;;;;;;;48.05;28.05;;;;;;;7.01;100.00;102807.75;5034387;28;20044;-58
2021/12/18 11:43:09;;;;;;;51.40;28.40;;;;;;;6.98;100.00;102798.19;5050633;28;21010;-58
2021/12/18 11:45:36;;;;;;;44.03;25.08;;;;;;;6.97;100.00;102796.44;5050376;28;20028;-58
2021/12/18 11:48:03;;;;;;;34.63;24.30;;;;;;;6.91;100.00;102799.03;5047200;28;20894;-59
2021/12/18 11:50:37;;;;;;;38.75;24.10;;;;;;;6.85;100.00;102793.78;5048667;28;20847;-58